sensor_id;sensor_type;location;lat;lon;timestamp;temperature;humidity
4693;DHT22;11710;48.024;16.296;2023-02-01T06:57:14;7.70;99.90
4693;DHT22;11710;48.024;16.296;2023-02-01T06:59:42;7.50;99.90
4693;DHT22;11710;48.024;16.296;2023-02-01T07:02:10;7.40;99.90
4693;DHT22;11710;48.024;16.296;2023-02-01T07:04:37;7.30;99.90
4693;DHT22;11710;48.024;16.296;2023-02-01T07:07:04;7.30;99.90
4693;DHT22;11710;48.024;16.296;2023-02-01T07:09:32;7.30;99.90
4693;DHT22;11710;48.024;16.296;2023-02-01T07:11:59;7.40;99.90
4693;DHT22;11710;48.024;16.296;2023-02-01T07:14:27;7.70;99.90
4693;DHT22;11710;48.024;16.296;2023-02-01T07:16:55;8.20;99.90
4693;DHT22;11710;48.024;16.296;2023-02-01T07:19:22;9.30;99.90
4693;DHT22;11710;48.024;16.296;2023-02-01T07:21:49;10.50;99.60
4693;DHT22;11710;48.024;16.296;2023-02-01T07:24:16;11.10;98.20
4693;DHT22;11710;48.024;16.296;2023-02-01T07:26:43;10.80;97.60
4693;DHT22;11710;48.024;16.296;2023-02-01T07:29:11;10.50;97.60
4693;DHT22;11710;48.024;16.296;2023-02-01T07:31:39;10.20;97.60
4693;DHT22;11710;48.024;16.296;2023-02-01T07:34:06;10.10;97.80
4693;DHT22;11710;48.024;16.296;2023-02-01T07:36:33;10.20;97.60
4693;DHT22;11710;48.024;16.296;2023-02-01T07:39:02;10.00;97.30
4693;DHT22;11710;48.024;16.296;2023-02-01T07:41:29;10.00;97.30
4693;DHT22;11710;48.024;16.296;2023-02-01T07:43:56;9.80;97.80
4693;DHT22;11710;48.024;16.296;2023-02-01T07:46:23;9.60;97.90
4693;DHT22;11710;48.024;16.296;2023-02-01T07:48:52;9.60;98.10
4693;DHT22;11710;48.024;16.296;2023-02-01T07:51:19;9.80;98.10
4693;DHT22;11710;48.024;16.296;2023-02-01T07:53:46;9.80;97.90
4693;DHT22;11710;48.024;16.296;2023-02-01T07:56:15;9.80;98.20
4693;DHT22;11710;48.024;16.296;2023-02-01T07:58:42;9.60;98.20
4693;DHT22;11710;48.024;16.296;2023-02-01T08:01:14;9.40;98.20
4693;DHT22;11710;48.024;16.296;2023-02-01T08:03:47;9.20;98.60
4693;DHT22;11710;48.024;16.296;2023-02-01T08:06:16;9.20;98.70
4693;DHT22;11710;48.024;16.296;2023-02-01T08:08:45;9.20;98.60
4693;DHT22;11710;48.024;16.296;2023-02-01T08:11:13;9.10;98.60
4693;DHT22;11710;48.024;16.296;2023-02-01T08:13:41;9.10;98.70
4693;DHT22;11710;48.024;16.296;2023-02-01T08:16:10;9.30;98.80
4693;DHT22;11710;48.024;16.296;2023-02-01T08:18:38;9.50;98.30
4693;DHT22;11710;48.024;16.296;2023-02-01T08:21:09;9.60;98.30
4693;DHT22;11710;48.024;16.296;2023-02-01T08:23:39;9.70;98.00
4693;DHT22;11710;48.024;16.296;2023-02-01T08:26:08;10.00;97.30
4693;DHT22;11710;48.024;16.296;2023-02-01T08:28:35;10.30;96.90
4693;DHT22;11710;48.024;16.296;2023-02-01T08:31:07;10.90;96.70
4693;DHT22;11710;48.024;16.296;2023-02-01T08:33:35;11.00;96.00
4693;DHT22;11710;48.024;16.296;2023-02-01T08:36:04;11.10;95.50
4693;DHT22;11710;48.024;16.296;2023-02-01T08:38:32;11.30;95.60
4693;DHT22;11710;48.024;16.296;2023-02-01T08:41:06;11.50;95.20
4693;DHT22;11710;48.024;16.296;2023-02-01T08:43:34;11.90;94.90
4693;DHT22;11710;48.024;16.296;2023-02-01T08:46:01;12.50;94.60
4693;DHT22;11710;48.024;16.296;2023-02-01T08:48:28;13.10;94.10
4693;DHT22;11710;48.024;16.296;2023-02-01T08:50:56;13.60;93.30
4693;DHT22;11710;48.024;16.296;2023-02-01T08:53:23;14.30;92.50
4693;DHT22;11710;48.024;16.296;2023-02-01T08:55:51;14.90;92.00
4693;DHT22;11710;48.024;16.296;2023-02-01T08:58:19;15.10;91.30
4693;DHT22;11710;48.024;16.296;2023-02-01T09:00:47;15.10;90.70
4693;DHT22;11710;48.024;16.296;2023-02-01T09:03:15;15.10;90.70
4693;DHT22;11710;48.024;16.296;2023-02-01T09:05:42;15.00;90.50
4693;DHT22;11710;48.024;16.296;2023-02-01T09:08:11;15.00;90.30
4693;DHT22;11710;48.024;16.296;2023-02-01T09:10:41;14.70;90.30
4693;DHT22;11710;48.024;16.296;2023-02-01T09:13:08;14.70;90.40
4693;DHT22;11710;48.024;16.296;2023-02-01T09:15:38;14.70;90.10
4693;DHT22;11710;48.024;16.296;2023-02-01T09:18:05;14.40;90.40
4693;DHT22;11710;48.024;16.296;2023-02-01T09:20:33;13.90;90.50
4693;DHT22;11710;48.024;16.296;2023-02-01T09:23:00;13.40;91.00
4693;DHT22;11710;48.024;16.296;2023-02-01T09:25:27;13.50;91.10
4693;DHT22;11710;48.024;16.296;2023-02-01T09:27:54;14.10;90.80
4693;DHT22;11710;48.024;16.296;2023-02-01T09:30:21;13.80;90.50
4693;DHT22;11710;48.024;16.296;2023-02-01T09:32:50;12.90;91.00
4693;DHT22;11710;48.024;16.296;2023-02-01T09:35:17;12.30;91.50
4693;DHT22;11710;48.024;16.296;2023-02-01T09:37:45;11.90;92.00
4693;DHT22;11710;48.024;16.296;2023-02-01T09:40:14;11.80;92.50
4693;DHT22;11710;48.024;16.296;2023-02-01T09:42:55;11.60;92.20
4693;DHT22;11710;48.024;16.296;2023-02-01T09:45:29;11.30;92.50
4693;DHT22;11710;48.024;16.296;2023-02-01T09:48:04;11.00;92.80
4693;DHT22;11710;48.024;16.296;2023-02-01T09:50:40;10.80;93.40
4693;DHT22;11710;48.024;16.296;2023-02-01T09:53:12;10.60;94.20
4693;DHT22;11710;48.024;16.296;2023-02-01T09:55:45;10.50;93.90
4693;DHT22;11710;48.024;16.296;2023-02-01T09:58:15;10.40;94.50
4693;DHT22;11710;48.024;16.296;2023-02-01T10:00:50;10.10;95.10
4693;DHT22;11710;48.024;16.296;2023-02-01T10:03:20;9.80;96.50
4693;DHT22;11710;48.024;16.296;2023-02-01T10:06:19;9.40;97.20
4693;DHT22;11710;48.024;16.296;2023-02-01T10:09:14;9.10;98.40
4693;DHT22;11710;48.024;16.296;2023-02-01T10:11:52;8.90;99.00
4693;DHT22;11710;48.024;16.296;2023-02-01T10:14:46;8.70;99.20
4693;DHT22;11710;48.024;16.296;2023-02-01T10:17:26;8.60;99.60
4693;DHT22;11710;48.024;16.296;2023-02-01T10:20:04;8.70;99.90
4693;DHT22;11710;48.024;16.296;2023-02-01T10:22:40;9.00;99.80
4693;DHT22;11710;48.024;16.296;2023-02-01T10:25:16;10.00;99.10
4693;DHT22;11710;48.024;16.296;2023-02-01T10:27:47;11.20;97.70
4693;DHT22;11710;48.024;16.296;2023-02-01T10:30:19;12.60;96.80
4693;DHT22;11710;48.024;16.296;2023-02-01T10:32:52;14.40;95.20
4693;DHT22;11710;48.024;16.296;2023-02-01T10:35:27;16.10;93.50
4693;DHT22;11710;48.024;16.296;2023-02-01T10:37:58;18.00;92.10
4693;DHT22;11710;48.024;16.296;2023-02-01T10:40:28;19.00;89.60
4693;DHT22;11710;48.024;16.296;2023-02-01T10:42:58;18.90;86.80
4693;DHT22;11710;48.024;16.296;2023-02-01T10:45:28;18.70;86.70
4693;DHT22;11710;48.024;16.296;2023-02-01T10:47:57;18.10;85.30
4693;DHT22;11710;48.024;16.296;2023-02-01T10:50:34;17.40;87.00
4693;DHT22;11710;48.024;16.296;2023-02-01T10:53:10;16.60;86.30
4693;DHT22;11710;48.024;16.296;2023-02-01T10:55:41;15.30;88.20
4693;DHT22;11710;48.024;16.296;2023-02-01T10:58:16;14.30;90.30
4693;DHT22;11710;48.024;16.296;2023-02-01T11:00:49;13.50;91.10
4693;DHT22;11710;48.024;16.296;2023-02-01T11:03:28;12.90;91.80
4693;DHT22;11710;48.024;16.296;2023-02-01T11:06:00;12.40;91.90
4693;DHT22;11710;48.024;16.296;2023-02-01T11:08:27;12.10;92.40
4693;DHT22;11710;48.024;16.296;2023-02-01T11:10:59;11.80;92.90
4693;DHT22;11710;48.024;16.296;2023-02-01T11:13:31;11.40;93.10
4693;DHT22;11710;48.024;16.296;2023-02-01T11:16:03;11.00;93.50
4693;DHT22;11710;48.024;16.296;2023-02-01T11:18:32;10.60;94.00
4693;DHT22;11710;48.024;16.296;2023-02-01T11:21:05;10.20;94.30
4693;DHT22;11710;48.024;16.296;2023-02-01T11:23:33;9.90;95.10
4693;DHT22;11710;48.024;16.296;2023-02-01T11:26:09;9.70;95.50
4693;DHT22;11710;48.024;16.296;2023-02-01T11:28:42;9.60;95.90
4693;DHT22;11710;48.024;16.296;2023-02-01T11:31:13;9.40;95.90
4693;DHT22;11710;48.024;16.296;2023-02-01T11:33:47;9.20;96.40
4693;DHT22;11710;48.024;16.296;2023-02-01T11:36:19;9.00;96.90
4693;DHT22;11710;48.024;16.296;2023-02-01T11:38:53;8.80;97.40
4693;DHT22;11710;48.024;16.296;2023-02-01T11:41:22;8.70;98.50
4693;DHT22;11710;48.024;16.296;2023-02-01T11:43:55;8.50;98.30
4693;DHT22;11710;48.024;16.296;2023-02-01T11:46:28;8.30;98.70
4693;DHT22;11710;48.024;16.296;2023-02-01T11:48:57;8.30;99.30
4693;DHT22;11710;48.024;16.296;2023-02-01T11:51:52;8.30;99.80
4693;DHT22;11710;48.024;16.296;2023-02-01T11:54:32;8.30;99.80
4693;DHT22;11710;48.024;16.296;2023-02-01T11:57:11;8.20;99.90
4693;DHT22;11710;48.024;16.296;2023-02-01T12:00:02;8.00;99.90
4693;DHT22;11710;48.024;16.296;2023-02-01T12:02:55;7.90;99.90
4693;DHT22;11710;48.024;16.296;2023-02-01T12:05:31;7.80;99.90
4693;DHT22;11710;48.024;16.296;2023-02-01T12:08:22;7.70;99.90
4693;DHT22;11710;48.024;16.296;2023-02-01T12:11:03;7.50;99.90
4693;DHT22;11710;48.024;16.296;2023-02-01T12:13:45;7.40;99.90
4693;DHT22;11710;48.024;16.296;2023-02-01T12:16:23;7.40;99.90
4693;DHT22;11710;48.024;16.296;2023-02-01T12:19:16;7.50;99.90
4693;DHT22;11710;48.024;16.296;2023-02-01T12:21:58;7.60;99.90
4693;DHT22;11710;48.024;16.296;2023-02-01T12:24:57;7.80;99.90
4693;DHT22;11710;48.024;16.296;2023-02-01T12:27:51;7.90;99.90
4693;DHT22;11710;48.024;16.296;2023-02-01T12:33:17;8.00;99.90
4693;DHT22;11710;48.024;16.296;2023-02-01T12:35:56;8.00;99.90
4693;DHT22;11710;48.024;16.296;2023-02-01T12:38:43;8.00;99.90
4693;DHT22;11710;48.024;16.296;2023-02-01T12:41:38;8.20;99.90
4693;DHT22;11710;48.024;16.296;2023-02-01T12:44:12;8.30;99.90
4693;DHT22;11710;48.024;16.296;2023-02-01T12:46:46;8.40;99.90
4693;DHT22;11710;48.024;16.296;2023-02-01T12:49:19;8.40;99.90
4693;DHT22;11710;48.024;16.296;2023-02-01T12:51:57;8.30;99.90
4693;DHT22;11710;48.024;16.296;2023-02-01T12:54:31;8.30;99.90
4693;DHT22;11710;48.024;16.296;2023-02-01T12:57:05;8.20;99.90
4693;DHT22;11710;48.024;16.296;2023-02-01T12:59:36;8.10;99.90
4693;DHT22;11710;48.024;16.296;2023-02-01T13:02:14;8.00;99.90
4693;DHT22;11710;48.024;16.296;2023-02-01T13:04:53;8.10;99.90
4693;DHT22;11710;48.024;16.296;2023-02-01T13:07:28;8.20;99.90
4693;DHT22;11710;48.024;16.296;2023-02-01T13:10:01;8.20;99.90
4693;DHT22;11710;48.024;16.296;2023-02-01T13:12:36;8.10;99.90
4693;DHT22;11710;48.024;16.296;2023-02-01T13:15:12;7.90;99.90
4693;DHT22;11710;48.024;16.296;2023-02-01T13:17:44;7.80;99.90
4693;DHT22;11710;48.024;16.296;2023-02-01T13:20:19;7.70;99.90
4693;DHT22;11710;48.024;16.296;2023-02-01T13:22:51;7.60;99.90
4693;DHT22;11710;48.024;16.296;2023-02-01T13:25:29;7.60;99.90
4693;DHT22;11710;48.024;16.296;2023-02-01T13:28:03;7.70;99.90
4693;DHT22;11710;48.024;16.296;2023-02-01T13:30:40;7.80;99.90
4693;DHT22;11710;48.024;16.296;2023-02-01T13:33:26;7.90;99.90
4693;DHT22;11710;48.024;16.296;2023-02-01T13:36:28;8.00;99.90
4693;DHT22;11710;48.024;16.296;2023-02-01T13:42:19;7.90;99.90
4693;DHT22;11710;48.024;16.296;2023-02-01T13:44:51;7.70;99.90
4693;DHT22;11710;48.024;16.296;2023-02-01T13:47:27;7.60;99.90
4693;DHT22;11710;48.024;16.296;2023-02-01T13:49:59;7.50;99.90
4693;DHT22;11710;48.024;16.296;2023-02-01T13:52:38;7.40;99.90
4693;DHT22;11710;48.024;16.296;2023-02-01T13:55:31;7.40;99.90
4693;DHT22;11710;48.024;16.296;2023-02-01T13:58:06;7.40;99.90
4693;DHT22;11710;48.024;16.296;2023-02-01T14:00:39;7.30;99.90
4693;DHT22;11710;48.024;16.296;2023-02-01T14:03:18;7.30;99.90
4693;DHT22;11710;48.024;16.296;2023-02-01T14:06:05;7.30;99.90
4693;DHT22;11710;48.024;16.296;2023-02-01T14:09:05;7.30;99.90
4693;DHT22;11710;48.024;16.296;2023-02-01T14:11:37;7.20;99.60
4693;DHT22;11710;48.024;16.296;2023-02-01T14:17:40;7.10;99.40
4693;DHT22;11710;48.024;16.296;2023-02-01T14:23:22;7.00;99.60
4693;DHT22;11710;48.024;16.296;2023-02-01T14:26:12;6.90;99.80
4693;DHT22;11710;48.024;16.296;2023-02-01T14:28:51;6.80;99.90
4693;DHT22;11710;48.024;16.296;2023-02-01T14:31:46;6.70;99.90
4693;DHT22;11710;48.024;16.296;2023-02-01T14:34:21;6.60;99.90
4693;DHT22;11710;48.024;16.296;2023-02-01T14:36:53;6.60;99.90
4693;DHT22;11710;48.024;16.296;2023-02-01T14:39:30;6.50;99.90
4693;DHT22;11710;48.024;16.296;2023-02-01T14:42:02;6.50;99.90
4693;DHT22;11710;48.024;16.296;2023-02-01T14:44:33;6.50;99.90
4693;DHT22;11710;48.024;16.296;2023-02-01T14:49:55;6.40;99.90
4693;DHT22;11710;48.024;16.296;2023-02-01T14:52:32;6.30;99.90
4693;DHT22;11710;48.024;16.296;2023-02-01T14:55:04;6.30;99.90
4693;DHT22;11710;48.024;16.296;2023-02-01T14:57:36;6.30;99.90
4693;DHT22;11710;48.024;16.296;2023-02-01T15:00:17;6.30;99.90
4693;DHT22;11710;48.024;16.296;2023-02-01T15:02:47;6.20;99.90
4693;DHT22;11710;48.024;16.296;2023-02-01T15:05:32;6.20;99.90
4693;DHT22;11710;48.024;16.296;2023-02-01T15:08:05;6.10;99.90
4693;DHT22;11710;48.024;16.296;2023-02-01T15:10:41;6.00;99.90
4693;DHT22;11710;48.024;16.296;2023-02-01T15:13:19;6.00;99.90
4693;DHT22;11710;48.024;16.296;2023-02-01T15:16:01;6.00;99.90
4693;DHT22;11710;48.024;16.296;2023-02-01T15:18:29;6.00;99.90
4693;DHT22;11710;48.024;16.296;2023-02-01T15:21:00;6.00;99.90
4693;DHT22;11710;48.024;16.296;2023-02-01T15:23:28;6.00;99.90
4693;DHT22;11710;48.024;16.296;2023-02-01T15:25:56;5.90;99.90
4693;DHT22;11710;48.024;16.296;2023-02-01T15:28:23;5.90;99.90
4693;DHT22;11710;48.024;16.296;2023-02-01T15:30:57;5.90;99.90
4693;DHT22;11710;48.024;16.296;2023-02-01T15:33:27;5.90;99.90
4693;DHT22;11710;48.024;16.296;2023-02-01T15:36:06;6.00;99.90
4693;DHT22;11710;48.024;16.296;2023-02-01T15:38:37;6.00;99.90
4693;DHT22;11710;48.024;16.296;2023-02-01T15:41:08;6.00;99.90
4693;DHT22;11710;48.024;16.296;2023-02-01T15:43:38;6.00;99.90
4693;DHT22;11710;48.024;16.296;2023-02-01T15:46:12;6.00;99.90
4693;DHT22;11710;48.024;16.296;2023-02-01T15:48:44;6.00;99.90
4693;DHT22;11710;48.024;16.296;2023-02-01T15:51:17;6.00;99.90
4693;DHT22;11710;48.024;16.296;2023-02-01T15:53:49;6.00;99.90
4693;DHT22;11710;48.024;16.296;2023-02-01T15:56:25;6.00;99.90
4693;DHT22;11710;48.024;16.296;2023-02-01T15:58:56;6.00;99.90
4693;DHT22;11710;48.024;16.296;2023-02-01T16:01:24;6.10;99.90
4693;DHT22;11710;48.024;16.296;2023-02-01T16:04:04;6.00;99.90
4693;DHT22;11710;48.024;16.296;2023-02-01T16:06:46;6.00;99.90
4693;DHT22;11710;48.024;16.296;2023-02-01T16:09:16;6.00;99.90
4693;DHT22;11710;48.024;16.296;2023-02-01T16:11:56;6.00;99.90
4693;DHT22;11710;48.024;16.296;2023-02-01T16:14:25;6.00;99.90
4693;DHT22;11710;48.024;16.296;2023-02-01T16:16:55;6.00;99.90
4693;DHT22;11710;48.024;16.296;2023-02-01T16:19:22;6.10;99.90
4693;DHT22;11710;48.024;16.296;2023-02-01T16:21:55;6.20;99.90
4693;DHT22;11710;48.024;16.296;2023-02-01T16:24:23;6.10;99.90
4693;DHT22;11710;48.024;16.296;2023-02-01T16:26:52;6.20;99.90
4693;DHT22;11710;48.024;16.296;2023-02-01T16:29:19;6.20;99.90
4693;DHT22;11710;48.024;16.296;2023-02-01T16:31:49;6.30;99.90
4693;DHT22;11710;48.024;16.296;2023-02-01T16:34:17;6.30;99.90
4693;DHT22;11710;48.024;16.296;2023-02-01T16:36:47;6.30;99.90
4693;DHT22;11710;48.024;16.296;2023-02-01T16:39:19;6.40;99.90
4693;DHT22;11710;48.024;16.296;2023-02-01T16:41:47;6.40;99.90
4693;DHT22;11710;48.024;16.296;2023-02-01T16:44:14;6.40;99.90
4693;DHT22;11710;48.024;16.296;2023-02-01T16:46:43;6.40;99.90
4693;DHT22;11710;48.024;16.296;2023-02-01T16:49:18;6.40;99.90
4693;DHT22;11710;48.024;16.296;2023-02-01T16:51:47;6.40;99.90
4693;DHT22;11710;48.024;16.296;2023-02-01T16:54:15;6.50;99.90
4693;DHT22;11710;48.024;16.296;2023-02-01T16:56:45;6.50;99.90
4693;DHT22;11710;48.024;16.296;2023-02-01T16:59:13;6.50;99.90
4693;DHT22;11710;48.024;16.296;2023-02-01T17:01:41;6.50;99.90
4693;DHT22;11710;48.024;16.296;2023-02-01T17:04:09;6.50;99.90
4693;DHT22;11710;48.024;16.296;2023-02-01T17:06:38;6.60;99.90
4693;DHT22;11710;48.024;16.296;2023-02-01T17:09:06;6.60;99.90
4693;DHT22;11710;48.024;16.296;2023-02-01T17:11:33;6.60;99.90
4693;DHT22;11710;48.024;16.296;2023-02-01T17:14:14;6.60;99.90
4693;DHT22;11710;48.024;16.296;2023-02-01T17:16:44;6.60;99.90
4693;DHT22;11710;48.024;16.296;2023-02-01T17:19:15;6.60;99.90
4693;DHT22;11710;48.024;16.296;2023-02-01T17:21:45;6.50;99.90
4693;DHT22;11710;48.024;16.296;2023-02-01T17:24:15;6.60;99.90
4693;DHT22;11710;48.024;16.296;2023-02-01T17:26:43;6.50;99.90
4693;DHT22;11710;48.024;16.296;2023-02-01T17:29:13;6.50;99.90
4693;DHT22;11710;48.024;16.296;2023-02-01T17:31:43;6.50;99.90
4693;DHT22;11710;48.024;16.296;2023-02-01T17:34:11;6.40;99.90
4693;DHT22;11710;48.024;16.296;2023-02-01T17:36:40;6.40;99.90
4693;DHT22;11710;48.024;16.296;2023-02-01T17:39:08;6.40;99.90
4693;DHT22;11710;48.024;16.296;2023-02-01T17:41:35;6.40;99.90
4693;DHT22;11710;48.024;16.296;2023-02-01T17:44:03;6.40;99.90
4693;DHT22;11710;48.024;16.296;2023-02-01T17:46:32;6.40;99.90
4693;DHT22;11710;48.024;16.296;2023-02-01T17:48:59;6.40;99.90
4693;DHT22;11710;48.024;16.296;2023-02-01T17:51:28;6.30;99.90
4693;DHT22;11710;48.024;16.296;2023-02-01T17:53:56;6.20;99.90
4693;DHT22;11710;48.024;16.296;2023-02-01T17:56:24;6.20;99.90
4693;DHT22;11710;48.024;16.296;2023-02-01T17:58:52;6.10;99.90
4693;DHT22;11710;48.024;16.296;2023-02-01T18:01:21;6.10;99.90
4693;DHT22;11710;48.024;16.296;2023-02-01T18:03:50;6.10;99.90
4693;DHT22;11710;48.024;16.296;2023-02-01T18:06:19;6.10;99.90
4693;DHT22;11710;48.024;16.296;2023-02-01T18:08:47;6.00;99.90
4693;DHT22;11710;48.024;16.296;2023-02-01T18:11:16;6.10;99.90
4693;DHT22;11710;48.024;16.296;2023-02-01T18:13:45;6.10;99.90
4693;DHT22;11710;48.024;16.296;2023-02-01T18:16:17;6.10;99.90
4693;DHT22;11710;48.024;16.296;2023-02-01T18:18:45;6.20;99.90
4693;DHT22;11710;48.024;16.296;2023-02-01T18:21:14;6.20;99.90
4693;DHT22;11710;48.024;16.296;2023-02-01T18:23:43;6.30;99.90
4693;DHT22;11710;48.024;16.296;2023-02-01T18:26:12;6.30;99.90
4693;DHT22;11710;48.024;16.296;2023-02-01T18:28:39;6.30;99.90
4693;DHT22;11710;48.024;16.296;2023-02-01T18:31:12;6.40;99.90
4693;DHT22;11710;48.024;16.296;2023-02-01T18:33:45;6.40;99.90
4693;DHT22;11710;48.024;16.296;2023-02-01T18:36:15;6.40;99.80
4693;DHT22;11710;48.024;16.296;2023-02-01T18:38:42;6.50;99.80
4693;DHT22;11710;48.024;16.296;2023-02-01T18:41:12;6.50;99.80
4693;DHT22;11710;48.024;16.296;2023-02-01T18:43:41;6.50;99.70
4693;DHT22;11710;48.024;16.296;2023-02-01T18:46:09;6.50;99.40
4693;DHT22;11710;48.024;16.296;2023-02-01T18:48:38;6.60;99.40
4693;DHT22;11710;48.024;16.296;2023-02-01T18:51:10;6.60;99.30
4693;DHT22;11710;48.024;16.296;2023-02-01T18:53:39;6.60;99.50
4693;DHT22;11710;48.024;16.296;2023-02-01T18:56:09;6.60;99.60
4693;DHT22;11710;48.024;16.296;2023-02-01T18:58:37;6.60;99.50
4693;DHT22;11710;48.024;16.296;2023-02-01T19:01:06;6.60;99.40
4693;DHT22;11710;48.024;16.296;2023-02-01T19:03:34;6.60;99.30
4693;DHT22;11710;48.024;16.296;2023-02-01T19:06:03;6.60;99.40
4693;DHT22;11710;48.024;16.296;2023-02-01T19:08:30;6.60;99.50
4693;DHT22;11710;48.024;16.296;2023-02-01T19:10:59;6.70;99.80
4693;DHT22;11710;48.024;16.296;2023-02-01T19:13:26;6.70;99.90
4693;DHT22;11710;48.024;16.296;2023-02-01T19:15:56;6.60;99.90
4693;DHT22;11710;48.024;16.296;2023-02-01T19:18:23;6.60;99.90
4693;DHT22;11710;48.024;16.296;2023-02-01T19:20:51;6.50;99.90
4693;DHT22;11710;48.024;16.296;2023-02-01T19:23:20;6.50;99.90
4693;DHT22;11710;48.024;16.296;2023-02-01T19:25:48;6.40;99.90
4693;DHT22;11710;48.024;16.296;2023-02-01T19:28:16;6.40;99.90
4693;DHT22;11710;48.024;16.296;2023-02-01T19:30:43;6.30;99.90
4693;DHT22;11710;48.024;16.296;2023-02-01T19:33:10;6.30;99.90
4693;DHT22;11710;48.024;16.296;2023-02-01T19:35:38;6.20;99.90
4693;DHT22;11710;48.024;16.296;2023-02-01T19:38:05;6.10;99.90
4693;DHT22;11710;48.024;16.296;2023-02-01T19:40:32;6.00;99.90
4693;DHT22;11710;48.024;16.296;2023-02-01T19:43:00;6.00;99.90
4693;DHT22;11710;48.024;16.296;2023-02-01T19:45:28;6.00;99.90
4693;DHT22;11710;48.024;16.296;2023-02-01T19:47:55;6.00;99.90
4693;DHT22;11710;48.024;16.296;2023-02-01T19:50:23;6.00;99.90
4693;DHT22;11710;48.024;16.296;2023-02-01T19:52:50;6.00;99.90
4693;DHT22;11710;48.024;16.296;2023-02-01T19:55:17;6.00;99.90
4693;DHT22;11710;48.024;16.296;2023-02-01T19:57:44;6.00;99.90
4693;DHT22;11710;48.024;16.296;2023-02-01T20:00:12;6.10;99.90
4693;DHT22;11710;48.024;16.296;2023-02-01T20:02:41;6.10;99.90
4693;DHT22;11710;48.024;16.296;2023-02-01T20:05:09;6.20;99.90
4693;DHT22;11710;48.024;16.296;2023-02-01T20:07:37;6.20;99.90
4693;DHT22;11710;48.024;16.296;2023-02-01T20:10:06;6.20;99.90
4693;DHT22;11710;48.024;16.296;2023-02-01T20:12:33;6.30;99.90
4693;DHT22;11710;48.024;16.296;2023-02-01T20:15:01;6.30;99.90
4693;DHT22;11710;48.024;16.296;2023-02-01T20:17:29;6.30;99.90
4693;DHT22;11710;48.024;16.296;2023-02-01T20:19:59;6.40;99.90
4693;DHT22;11710;48.024;16.296;2023-02-01T20:22:26;6.30;99.90
4693;DHT22;11710;48.024;16.296;2023-02-01T20:24:54;6.30;99.90
4693;DHT22;11710;48.024;16.296;2023-02-01T20:27:23;6.40;99.90
4693;DHT22;11710;48.024;16.296;2023-02-01T20:29:50;6.40;99.90
4693;DHT22;11710;48.024;16.296;2023-02-01T20:32:17;6.40;99.90
4693;DHT22;11710;48.024;16.296;2023-02-01T20:34:44;6.40;99.90
4693;DHT22;11710;48.024;16.296;2023-02-01T20:37:17;6.40;99.90
4693;DHT22;11710;48.024;16.296;2023-02-01T20:39:44;6.40;99.80
4693;DHT22;11710;48.024;16.296;2023-02-01T20:42:11;6.40;99.80
4693;DHT22;11710;48.024;16.296;2023-02-01T20:44:39;6.40;99.90
